Página principal
METAR-TAF:

METAR-TAF

Aeroportos :

Rarotonga, Ilhas Cook

latitude: 21-12S, longitude: 159-49W, altura: 7 m

Observação actual do tempo

O boletim foi feito há 16 minutos, às 04:30 UTC
Vento 9 kt de este
Temperatura 25°C
Humidade 69%
Pressão 1012 hPa
Visibilidade 10 km ou mais

METAR: NCRG 140430Z AUTO 09009KT 9999 FEW034/// 25/19 Q1012

Hora: 18:46 (04:46 UTC)

Previsão

O boletim foi feito há 5 horas e 26 minutos, às 23:20 UTC
Previsão válida de 14 às 00 UTC a 14 às 24 UTC
Vento 13 kt de este
Visibilidade 10 km ou mais
Nuvens dispersasa uma altura de 1800 ft
aguaceiros fracos de chuva

TAF: NCRG 132320Z 1400/1424 08013KT 9999 -SHRA SCT018

Observações e previsões do tempo de mais de 4000 aeroportos (mensagens METAR e TAF).

As estações disponíveis são os pontos amarelos e vermelhos sobre o mapa.

Mova o rato sobre o mapa para ver o nome da estação.

Depois clique no ponto para visualizar as observações e previsões meteorológicas.

Para alterar o mapa : clique nos botões verdes com uma cruz preta para aumentar o zoom; no botão verde com uma pitada de zoom; ou nas setas verdes para mapas adjacentes.


METAR-TAF: